Terminal Aerodrome Forecast
Issued by NWS Wakefield, VA

Home | Current Version | Previous Version | Text Only | Print | Product List | Glossary On
Versions: 1 2 3 4 5 6 7 8 9 10 11 12 13 14 15 16 17 18
360
FTUS41 KAKQ 280552 AAA
TAFSBY
TAF AMD
KSBY 280552Z 2806/2906 20003KT P6SM VCSH SCT050 BKN100
     FM280800 22004KT P6SM BKN100
     FM281400 24004KT 6SM -SHRA OVC100
     FM281600 24005KT 3SM RA BR BKN030 OVC050
     FM282300 17005KT 3SM RA OVC030=

USA.gov is the U.S. government's official web portal to all federal, state and local government web resources and services.